| time (UTC) | temp F | wind direction | speed MPH | gust MPH | rain 1hr in | rain 24hr in | rain mn in | humidity % | barometer mb |
| 20260507174003 | 59 | 331 | 6.0 | 11.0 | 0.00 | 0.00 | 0.00 | 67 | 1018.0 |
| 20260507173003 | 61 | 307 | 7.0 | 14.0 | 0.00 | 0.00 | 0.00 | 63 | 1017.9 |
| 20260507172003 | 62 | 311 | 7.0 | 14.0 | 0.00 | 0.00 | 0.00 | 59 | 1017.5 |
| 20260507171003 | 63 | 312 | 7.0 | 16.0 | 0.00 | 0.00 | 0.00 | 57 | 1017.3 |
| 20260507170003 | 63 | 312 | 7.0 | 14.0 | 0.00 | 0.01 | 0.00 | 56 | 1017.2 |
| 20260507165003 | 63 | 307 | 7.0 | 13.0 | 0.00 | 0.01 | 0.00 | 56 | 1017.3 |
| 20260507164003 | 64 | 289 | 7.0 | 13.0 | 0.00 | 0.01 | 0.00 | 53 | 1017.0 |
| 20260507163003 | 64 | 302 | 7.0 | 13.0 | 0.00 | 0.01 | 0.00 | 53 | 1016.7 |
| 20260507162003 | 64 | 297 | 6.0 | 10.0 | 0.00 | 0.01 | 0.00 | 53 | 1016.8 |
| 20260507161003 | 64 | 281 | 3.0 | 7.0 | 0.00 | 0.01 | 0.00 | 52 | 1016.8 |
| 20260507160003 | 64 | 269 | 5.0 | 9.0 | 0.00 | 0.01 | 0.00 | 52 | 1016.9 |
| 20260507155003 | 65 | 283 | 6.0 | 11.0 | 0.00 | 0.01 | 0.00 | 51 | 1016.7 |
| 20260507154003 | 64 | 298 | 7.0 | 15.0 | 0.00 | 0.01 | 0.00 | 50 | 1016.9 |
| 20260507153003 | 64 | 300 | 6.0 | 10.0 | 0.00 | 0.01 | 0.00 | 51 | 1016.8 |
| 20260507152003 | 65 | 295 | 5.0 | 11.0 | 0.00 | 0.01 | 0.00 | 49 | 1016.7 |
| 20260507151011 | 65 | 295 | 6.0 | 11.0 | 0.00 | 0.01 | 0.00 | 50 | 1016.7 |
| 20260507150003 | 64 | 281 | 7.0 | 11.0 | 0.00 | 0.01 | 0.00 | 50 | 1016.4 |
| 20260507145003 | 63 | 296 | 7.0 | 15.0 | 0.00 | 0.01 | 0.00 | 52 | 1016.7 |
| 20260507144003 | 63 | 295 | 8.0 | 15.0 | 0.00 | 0.01 | 0.00 | 51 | 1016.8 |
| 20260507143003 | 63 | 313 | 8.0 | 14.0 | 0.00 | 0.01 | 0.00 | 53 | 1016.7 |
| 20260507142003 | 64 | 303 | 9.0 | 14.0 | 0.00 | 0.01 | 0.00 | 53 | 1016.7 |
| 20260507141003 | 64 | 306 | 8.0 | 14.0 | 0.00 | 0.03 | 0.00 | 54 | 1016.8 |
| 20260507140003 | 63 | 284 | 7.0 | 13.0 | 0.00 | 0.06 | 0.00 | 56 | 1017.0 |
| 20260507135003 | 63 | 300 | 8.0 | 15.0 | 0.00 | 0.06 | 0.00 | 56 | 1017.0 |
| 20260507134003 | 63 | 306 | 8.0 | 15.0 | 0.00 | 0.06 | 0.00 | 58 | 1016.9 |
| 20260507133003 | 63 | 303 | 7.0 | 13.0 | 0.00 | 0.06 | 0.00 | 57 | 1016.8 |
| 20260507132003 | 63 | 304 | 7.0 | 11.0 | 0.00 | 0.06 | 0.00 | 58 | 1017.1 |
| 20260507131003 | 63 | 292 | 9.0 | 15.0 | 0.00 | 0.06 | 0.00 | 57 | 1016.9 |
| 20260507130004 | 64 | 292 | 8.0 | 13.0 | 0.00 | 0.06 | 0.00 | 57 | 1016.9 |
| 20260507125003 | 65 | 288 | 7.0 | 13.0 | 0.00 | 0.06 | 0.00 | 56 | 1016.6 |
| 20260507124003 | 62 | 294 | 6.0 | 14.0 | 0.00 | 0.06 | 0.00 | 57 | 1016.9 |
| 20260507123003 | 63 | 297 | 6.0 | 11.0 | 0.00 | 0.06 | 0.00 | 57 | 1016.5 |
| 20260507122004 | 63 | 258 | 5.0 | 8.0 | 0.00 | 0.06 | 0.00 | 55 | 1016.6 |
| 20260507121003 | 63 | 284 | 5.0 | 9.0 | 0.00 | 0.06 | 0.00 | 56 | 1016.6 |
| 20260507120004 | 64 | 298 | 7.0 | 14.0 | 0.00 | 0.06 | 0.00 | 56 | 1016.4 |
| 20260507115003 | 63 | 287 | 5.0 | 9.0 | 0.00 | 0.06 | 0.00 | 56 | 1016.4 |
| 20260507114003 | 64 | 256 | 5.0 | 13.0 | 0.00 | 0.06 | 0.00 | 57 | 1016.7 |
| 20260507113003 | 64 | 276 | 6.0 | 10.0 | 0.00 | 0.06 | 0.00 | 56 | 1016.3 |
| 20260507112003 | 62 | 284 | 6.0 | 13.0 | 0.00 | 0.06 | 0.00 | 56 | 1016.9 |
| 20260507111003 | 63 | 285 | 7.0 | 14.0 | 0.00 | 0.06 | 0.00 | 56 | 1016.6 |
| 20260507110003 | 62 | 244 | 6.0 | 10.0 | 0.00 | 0.06 | 0.00 | 58 | 1016.7 |
| 20260507105003 | 62 | 266 | 6.0 | 13.0 | 0.00 | 0.06 | 0.00 | 58 | 1016.6 |
| 20260507103003 | 62 | 270 | 7.0 | 15.0 | 0.00 | 0.06 | 0.00 | 58 | 1016.7 |
| 20260507102003 | 61 | 208 | 6.0 | 10.0 | 0.00 | 0.06 | 0.00 | 61 | 1016.7 |
| 20260507101003 | 61 | 246 | 5.0 | 10.0 | 0.00 | 0.06 | 0.00 | 61 | 1016.5 |
| 20260507100003 | 61 | 275 | 5.0 | 9.0 | 0.00 | 0.06 | 0.00 | 63 | 1016.5 |
| 20260507095003 | 60 | 248 | 6.0 | 11.0 | 0.00 | 0.06 | 0.00 | 65 | 1016.5 |
| 20260507094003 | 60 | 263 | 6.0 | 10.0 | 0.00 | 0.06 | 0.00 | 65 | 1016.5 |
| 20260507093003 | 60 | 244 | 5.0 | 10.0 | 0.00 | 0.06 | 0.00 | 66 | 1016.6 |
| 20260507092003 | 59 | 250 | 7.0 | 11.0 | 0.00 | 0.06 | 0.00 | 65 | 1016.5 |
| 20260507091003 | 60 | 247 | 7.0 | 13.0 | 0.00 | 0.06 | 0.00 | 69 | 1016.4 |
| 20260507090004 | 59 | 267 | 6.0 | 11.0 | 0.00 | 0.06 | 0.00 | 68 | 1016.2 |
| 20260507085003 | 60 | 241 | 6.0 | 10.0 | 0.00 | 0.06 | 0.00 | 68 | 1016.0 |
| 20260507084003 | 60 | 273 | 6.0 | 10.0 | 0.00 | 0.06 | 0.00 | 67 | 1016.0 |
| 20260507083003 | 61 | 254 | 7.0 | 14.0 | 0.00 | 0.06 | 0.00 | 66 | 1016.0 |
| 20260507082003 | 60 | 279 | 5.0 | 15.0 | 0.00 | 0.06 | 0.00 | 68 | 1015.7 |
| 20260507081003 | 59 | 279 | 8.0 | 15.0 | 0.00 | 0.06 | 0.00 | 69 | 1016.0 |
| 20260507080003 | 60 | 225 | 8.0 | 13.0 | 0.00 | 0.06 | 0.00 | 68 | 1015.8 |
| 20260507075003 | 59 | 258 | 9.0 | 14.0 | 0.00 | 0.06 | 0.00 | 69 | 1016.0 |
| 20260507074003 | 58 | 244 | 6.0 | 10.0 | 0.00 | 0.06 | 0.00 | 70 | 1015.9 |
| 20260507073004 | 58 | 269 | 6.0 | 11.0 | 0.00 | 0.06 | 0.00 | 71 | 1015.9 |
| 20260507072003 | 58 | 239 | 6.0 | 13.0 | 0.00 | 0.06 | 0.00 | 73 | 1015.7 |
| 20260507071003 | 58 | 250 | 7.0 | 14.0 | 0.00 | 0.06 | 0.00 | 72 | 1015.7 |
| 20260507070006 | 58 | 256 | 6.0 | 14.0 | 0.00 | 0.06 | 0.00 | 74 | 1015.8 |
| 20260507065003 | 57 | 261 | 6.0 | 13.0 | 0.00 | 0.06 | 0.00 | 76 | 1015.9 |
| 20260507064003 | 56 | 251 | 4.0 | 8.0 | 0.00 | 0.06 | 0.00 | 78 | 1015.9 |
| 20260507063003 | 57 | 260 | 5.0 | 8.0 | 0.00 | 0.06 | 0.00 | 77 | 1015.8 |
| 20260507062003 | 57 | 190 | 1.0 | 6.0 | 0.00 | 0.06 | 0.00 | 78 | 1015.7 |
| 20260507061003 | 56 | 219 | 1.0 | 3.0 | 0.00 | 0.06 | 0.00 | 79 | 1015.7 |
| 20260507060003 | 56 | 228 | 2.0 | 4.0 | 0.00 | 0.06 | 0.00 | 80 | 1015.5 |
| 20260507055003 | 55 | 252 | 2.0 | 4.0 | 0.00 | 0.06 | 0.00 | 81 | 1015.4 |
| 20260507054003 | 55 | 175 | 1.0 | 3.0 | 0.00 | 0.06 | 0.00 | 82 | 1015.2 |
| 20260507053003 | 55 | 252 | 1.0 | 4.0 | 0.00 | 0.06 | 0.00 | 83 | 1015.2 |
| 20260507052003 | 54 | 228 | 2.0 | 7.0 | 0.00 | 0.06 | 0.00 | 84 | 1015.3 |
| 20260507051003 | 54 | 217 | 1.0 | 3.0 | 0.00 | 0.06 | 0.00 | 86 | 1014.9 |
| 20260507050003 | 53 | 180 | 1.0 | 3.0 | 0.00 | 0.06 | 0.00 | 87 | 1015.0 |
| 20260507045003 | 53 | 196 | 1.0 | 3.0 | 0.00 | 0.06 | 0.00 | 87 | 1014.9 |
| 20260507044003 | 53 | 218 | 1.0 | 3.0 | 0.00 | 0.06 | 0.00 | 88 | 1014.8 |
| 20260507043003 | 53 | 219 | 1.0 | 4.0 | 0.00 | 0.06 | 0.00 | 87 | 1014.8 |
| 20260507042003 | 53 | 208 | 1.0 | 4.0 | 0.00 | 0.06 | 0.00 | 87 | 1014.6 |
| 20260507041006 | 53 | 161 | 2.0 | 4.0 | 0.00 | 0.06 | 0.00 | 88 | 1014.6 |
| 20260507040003 | 53 | 216 | 1.0 | 2.0 | 0.00 | 0.06 | 0.00 | 89 | 1014.2 |
| 20260507035011 | 53 | 220 | 1.0 | 2.0 | 0.00 | 0.06 | 0.00 | 88 | 1014.2 |
| 20260507034003 | 54 | 223 | 0.0 | 2.0 | 0.00 | 0.06 | 0.00 | 88 | 1014.4 |
| 20260507033003 | 54 | 238 | 2.0 | 3.0 | 0.00 | 0.06 | 0.00 | 87 | 1014.1 |
| 20260507032003 | 54 | 263 | 3.0 | 9.0 | 0.00 | 0.06 | 0.00 | 87 | 1014.1 |
| 20260507031003 | 55 | 229 | 5.0 | 9.0 | 0.00 | 0.06 | 0.00 | 86 | 1013.8 |
| 20260507030003 | 55 | 232 | 4.0 | 8.0 | 0.00 | 0.06 | 0.00 | 86 | 1013.7 |
| 20260507025003 | 55 | 208 | 4.0 | 8.0 | 0.00 | 0.06 | 0.00 | 85 | 1013.3 |
| 20260507024003 | 55 | 194 | 2.0 | 7.0 | 0.00 | 0.06 | 0.00 | 85 | 1013.5 |
| 20260507023003 | 55 | 186 | 1.0 | 6.0 | 0.00 | 0.06 | 0.00 | 85 | 1013.5 |
| 20260507022003 | 55 | 195 | 2.0 | 4.0 | 0.00 | 0.06 | 0.00 | 85 | 1013.4 |
| 20260507021003 | 53 | 196 | 1.0 | 4.0 | 0.00 | 0.06 | 0.00 | 87 | 1013.7 |
| 20260507020003 | 53 | 147 | 1.0 | 3.0 | 0.00 | 0.06 | 0.00 | 86 | 1013.6 |
| 20260507015003 | 54 | 150 | 1.0 | 2.0 | 0.00 | 0.06 | 0.00 | 85 | 1013.2 |
| 20260507014003 | 54 | 179 | 1.0 | 3.0 | 0.00 | 0.06 | 0.00 | 86 | 1013.5 |
| 20260507013003 | 53 | 188 | 2.0 | 6.0 | 0.00 | 0.06 | 0.00 | 88 | 1013.5 |
| 20260507012003 | 53 | 198 | 2.0 | 4.0 | 0.00 | 0.06 | 0.00 | 88 | 1013.5 |
| 20260507011003 | 53 | 205 | 2.0 | 6.0 | 0.00 | 0.06 | 0.00 | 88 | 1013.1 |
| 20260507010003 | 53 | 199 | 2.0 | 6.0 | 0.00 | 0.06 | 0.00 | 87 | 1013.0 |
| 20260507005003 | 53 | 192 | 2.0 | 3.0 | 0.00 | 0.06 | 0.00 | 88 | 1013.0 |
| 20260507004003 | 54 | 203 | 2.0 | 6.0 | 0.00 | 0.06 | 0.00 | 88 | 1012.8 |
| 20260507003003 | 54 | 217 | 2.0 | 6.0 | 0.00 | 0.06 | 0.00 | 88 | 1012.9 |
| 20260507002003 | 54 | 221 | 2.0 | 6.0 | 0.00 | 0.06 | 0.00 | 89 | 1012.9 |
| 20260507001003 | 54 | 226 | 2.0 | 3.0 | 0.00 | 0.06 | 0.00 | 89 | 1012.6 |
| 20260507000003 | 54 | 228 | 2.0 | 4.0 | 0.00 | 0.06 | 0.00 | 89 | 1012.7 |
| 20260506235003 | 54 | 170 | 2.0 | 3.0 | 0.00 | 0.06 | 0.00 | 89 | 1012.6 |
| 20260506234003 | 54 | 236 | 2.0 | 3.0 | 0.00 | 0.06 | 0.00 | 89 | 1012.4 |
| 20260506233003 | 54 | 259 | 1.0 | 3.0 | 0.00 | 0.06 | 0.00 | 89 | 1012.4 |
| 20260506232003 | 54 | 285 | 2.0 | 4.0 | 0.00 | 0.06 | 0.00 | 89 | 1012.2 |
| 20260506231003 | 55 | 289 | 5.0 | 9.0 | 0.00 | 0.06 | 0.00 | 88 | 1012.1 |
| 20260506230003 | 55 | 291 | 4.0 | 10.0 | 0.00 | 0.06 | 0.00 | 87 | 1012.0 |
| 20260506225003 | 55 | 52 | 4.0 | 9.0 | 0.00 | 0.06 | 0.00 | 87 | 1011.2 |
| 20260506224003 | 55 | 33 | 3.0 | 7.0 | 0.00 | 0.06 | 0.00 | 87 | 1010.9 |
| 20260506223003 | 55 | 319 | 3.0 | 8.0 | 0.00 | 0.06 | 0.00 | 86 | 1011.4 |
| 20260506222003 | 56 | 335 | 4.0 | 8.0 | 0.00 | 0.06 | 0.00 | 83 | 1011.9 |
| 20260506221003 | 56 | 334 | 5.0 | 11.0 | 0.00 | 0.06 | 0.00 | 81 | 1012.0 |
| 20260506220011 | 57 | 305 | 7.0 | 17.0 | 0.00 | 0.06 | 0.00 | 81 | 1012.0 |
| 20260506215004 | 57 | 304 | 8.0 | 14.0 | 0.00 | 0.06 | 0.06 | 81 | 1012.1 |
| 20260506214003 | 57 | 300 | 6.0 | 11.0 | 0.00 | 0.06 | 0.06 | 82 | 1012.1 |
| 20260506213003 | 57 | 292 | 8.0 | 16.0 | 0.00 | 0.06 | 0.06 | 84 | 1012.2 |
| 20260506212003 | 56 | 287 | 7.0 | 16.0 | 0.00 | 0.06 | 0.06 | 88 | 1012.6 |
| 20260506211003 | 55 | 311 | 4.0 | 9.0 | 0.00 | 0.06 | 0.06 | 87 | 1011.5 |
| 20260506210004 | 55 | 319 | 3.0 | 7.0 | 0.00 | 0.06 | 0.06 | 87 | 1010.9 |
| 20260506205003 | 56 | 318 | 2.0 | 3.0 | 0.00 | 0.06 | 0.06 | 85 | 1010.7 |
| 20260506204003 | 56 | 331 | 2.0 | 4.0 | 0.00 | 0.06 | 0.06 | 83 | 1010.4 |
| 20260506203003 | 56 | 69 | 0.0 | 2.0 | 0.00 | 0.06 | 0.06 | 83 | 1010.5 |
| 20260506202003 | 56 | 86 | 0.0 | 3.0 | 0.00 | 0.06 | 0.06 | 82 | 1010.0 |
| 20260506201003 | 56 | 78 | 0.0 | 2.0 | 0.00 | 0.06 | 0.06 | 82 | 1010.0 |
| 20260506200003 | 57 | 79 | 2.0 | 4.0 | 0.00 | 0.06 | 0.06 | 82 | 1010.0 |
| 20260506195003 | 56 | 82 | 1.0 | 2.0 | 0.00 | 0.06 | 0.06 | 84 | 1010.1 |
| 20260506194003 | 57 | 136 | 0.0 | 2.0 | 0.00 | 0.06 | 0.06 | 83 | 1010.0 |
| 20260506193003 | 57 | 114 | 1.0 | 2.0 | 0.00 | 0.06 | 0.06 | 83 | 1010.0 |
| 20260506192003 | 57 | 90 | 0.0 | 1.0 | 0.00 | 0.06 | 0.06 | 83 | 1009.9 |
| 20260506191003 | 57 | 83 | 0.0 | 2.0 | 0.00 | 0.06 | 0.06 | 83 | 1009.8 |
| 20260506190003 | 57 | 81 | 1.0 | 3.0 | 0.00 | 0.06 | 0.06 | 83 | 1010.0 |
| 20260506185003 | 57 | 0 | 0.0 | 0.0 | 0.00 | 0.06 | 0.06 | 86 | 1009.8 |
| 20260506184003 | 58 | 0 | 0.0 | 0.0 | 0.00 | 0.06 | 0.06 | 85 | 1010.0 |
| 20260506183003 | 58 | 56 | 1.0 | 2.0 | 0.00 | 0.06 | 0.06 | 85 | 1009.8 |
| 20260506182003 | 58 | 25 | 2.0 | 4.0 | 0.00 | 0.06 | 0.06 | 84 | 1009.6 |
| 20260506181003 | 58 | 64 | 1.0 | 2.0 | 0.00 | 0.06 | 0.06 | 85 | 1009.9 |
| 20260506180004 | 59 | 61 | 3.0 | 4.0 | 0.01 | 0.06 | 0.06 | 83 | 1010.2 |
| 20260506175003 | 59 | 34 | 3.0 | 4.0 | 0.01 | 0.06 | 0.06 | 83 | 1009.7 |